sensor_id;sensor_type;location;lat;lon;timestamp;P1;durP1;ratioP1;P2;durP2;ratioP2
63534;SDS011;55128;50.230;18.944;2023-12-29T00:04:38;15.40;;;9.82;;
63534;SDS011;55128;50.230;18.944;2023-12-29T00:09:39;15.88;;;10.13;;
63534;SDS011;55128;50.230;18.944;2023-12-29T00:14:40;15.60;;;9.68;;
63534;SDS011;55128;50.230;18.944;2023-12-29T00:19:41;13.20;;;9.50;;
63534;SDS011;55128;50.230;18.944;2023-12-29T00:24:41;14.35;;;9.63;;
63534;SDS011;55128;50.230;18.944;2023-12-29T00:29:41;20.67;;;11.52;;
63534;SDS011;55128;50.230;18.944;2023-12-29T00:34:42;14.50;;;9.63;;
63534;SDS011;55128;50.230;18.944;2023-12-29T00:39:42;13.40;;;9.15;;
63534;SDS011;55128;50.230;18.944;2023-12-29T00:44:43;14.98;;;8.93;;
63534;SDS011;55128;50.230;18.944;2023-12-29T00:49:43;13.07;;;8.17;;
63534;SDS011;55128;50.230;18.944;2023-12-29T00:54:44;12.88;;;8.23;;
63534;SDS011;55128;50.230;18.944;2023-12-29T00:59:46;13.60;;;7.90;;
63534;SDS011;55128;50.230;18.944;2023-12-29T01:04:47;12.20;;;7.72;;
63534;SDS011;55128;50.230;18.944;2023-12-29T01:09:47;12.55;;;7.65;;
63534;SDS011;55128;50.230;18.944;2023-12-29T01:14:47;14.32;;;9.18;;
63534;SDS011;55128;50.230;18.944;2023-12-29T01:19:48;10.57;;;7.32;;
63534;SDS011;55128;50.230;18.944;2023-12-29T01:24:48;10.70;;;7.80;;
63534;SDS011;55128;50.230;18.944;2023-12-29T01:29:48;9.20;;;6.95;;
63534;SDS011;55128;50.230;18.944;2023-12-29T01:34:49;12.05;;;7.68;;
63534;SDS011;55128;50.230;18.944;2023-12-29T01:39:49;11.48;;;7.50;;
63534;SDS011;55128;50.230;18.944;2023-12-29T01:44:49;10.65;;;7.15;;
63534;SDS011;55128;50.230;18.944;2023-12-29T01:49:54;10.90;;;7.03;;
63534;SDS011;55128;50.230;18.944;2023-12-29T01:54:54;11.15;;;7.90;;
63534;SDS011;55128;50.230;18.944;2023-12-29T01:59:56;10.25;;;7.32;;
63534;SDS011;55128;50.230;18.944;2023-12-29T02:04:56;10.40;;;7.10;;
63534;SDS011;55128;50.230;18.944;2023-12-29T02:09:58;8.65;;;6.60;;
63534;SDS011;55128;50.230;18.944;2023-12-29T02:14:59;10.60;;;7.20;;
63534;SDS011;55128;50.230;18.944;2023-12-29T02:20:00;11.13;;;6.65;;
63534;SDS011;55128;50.230;18.944;2023-12-29T02:25:00;9.82;;;6.47;;
63534;SDS011;55128;50.230;18.944;2023-12-29T02:30:07;8.25;;;5.22;;
63534;SDS011;55128;50.230;18.944;2023-12-29T02:35:29;9.15;;;5.63;;
63534;SDS011;55128;50.230;18.944;2023-12-29T02:40:34;8.98;;;5.35;;
63534;SDS011;55128;50.230;18.944;2023-12-29T02:45:35;8.45;;;5.70;;
63534;SDS011;55128;50.230;18.944;2023-12-29T02:50:35;8.80;;;6.30;;
63534;SDS011;55128;50.230;18.944;2023-12-29T02:55:36;9.10;;;5.88;;
63534;SDS011;55128;50.230;18.944;2023-12-29T03:00:36;8.05;;;5.82;;
63534;SDS011;55128;50.230;18.944;2023-12-29T03:05:36;9.68;;;6.10;;
63534;SDS011;55128;50.230;18.944;2023-12-29T03:10:36;8.20;;;5.20;;
63534;SDS011;55128;50.230;18.944;2023-12-29T03:15:37;8.52;;;5.32;;
63534;SDS011;55128;50.230;18.944;2023-12-29T03:20:37;9.10;;;5.50;;
63534;SDS011;55128;50.230;18.944;2023-12-29T03:25:37;9.77;;;5.35;;
63534;SDS011;55128;50.230;18.944;2023-12-29T03:30:38;9.88;;;5.72;;
63534;SDS011;55128;50.230;18.944;2023-12-29T03:35:38;8.60;;;5.78;;
63534;SDS011;55128;50.230;18.944;2023-12-29T03:40:39;7.47;;;5.43;;
63534;SDS011;55128;50.230;18.944;2023-12-29T03:45:39;8.55;;;5.85;;
63534;SDS011;55128;50.230;18.944;2023-12-29T03:50:39;9.00;;;5.43;;
63534;SDS011;55128;50.230;18.944;2023-12-29T03:55:40;8.85;;;5.88;;
63534;SDS011;55128;50.230;18.944;2023-12-29T04:00:40;13.23;;;7.75;;
63534;SDS011;55128;50.230;18.944;2023-12-29T04:05:41;10.07;;;6.78;;
63534;SDS011;55128;50.230;18.944;2023-12-29T04:10:42;10.20;;;6.77;;
63534;SDS011;55128;50.230;18.944;2023-12-29T04:15:43;9.77;;;6.55;;
63534;SDS011;55128;50.230;18.944;2023-12-29T04:20:44;10.15;;;6.38;;
63534;SDS011;55128;50.230;18.944;2023-12-29T04:25:44;12.88;;;7.90;;
63534;SDS011;55128;50.230;18.944;2023-12-29T04:30:44;11.63;;;7.60;;
63534;SDS011;55128;50.230;18.944;2023-12-29T04:35:45;10.93;;;7.82;;
63534;SDS011;55128;50.230;18.944;2023-12-29T04:40:45;10.18;;;6.03;;
63534;SDS011;55128;50.230;18.944;2023-12-29T04:45:49;7.63;;;5.28;;
63534;SDS011;55128;50.230;18.944;2023-12-29T04:50:51;9.38;;;5.97;;
63534;SDS011;55128;50.230;18.944;2023-12-29T04:55:52;6.88;;;5.20;;
63534;SDS011;55128;50.230;18.944;2023-12-29T05:00:52;6.80;;;5.03;;
63534;SDS011;55128;50.230;18.944;2023-12-29T05:05:53;7.38;;;5.20;;
63534;SDS011;55128;50.230;18.944;2023-12-29T05:10:53;8.43;;;5.40;;
63534;SDS011;55128;50.230;18.944;2023-12-29T05:15:53;9.53;;;5.17;;
63534;SDS011;55128;50.230;18.944;2023-12-29T05:20:53;8.98;;;5.57;;
63534;SDS011;55128;50.230;18.944;2023-12-29T05:25:54;7.88;;;5.55;;
63534;SDS011;55128;50.230;18.944;2023-12-29T05:30:54;8.27;;;5.72;;
63534;SDS011;55128;50.230;18.944;2023-12-29T05:35:54;7.68;;;5.00;;
63534;SDS011;55128;50.230;18.944;2023-12-29T05:40:55;8.95;;;5.32;;
63534;SDS011;55128;50.230;18.944;2023-12-29T05:45:55;7.90;;;5.43;;
63534;SDS011;55128;50.230;18.944;2023-12-29T05:50:55;7.68;;;5.00;;
63534;SDS011;55128;50.230;18.944;2023-12-29T05:55:56;6.32;;;4.40;;
63534;SDS011;55128;50.230;18.944;2023-12-29T06:00:56;6.03;;;4.20;;
63534;SDS011;55128;50.230;18.944;2023-12-29T06:05:56;7.00;;;4.20;;
63534;SDS011;55128;50.230;18.944;2023-12-29T06:10:57;7.15;;;4.68;;
63534;SDS011;55128;50.230;18.944;2023-12-29T06:15:57;7.90;;;4.40;;
63534;SDS011;55128;50.230;18.944;2023-12-29T06:20:58;9.48;;;5.53;;
63534;SDS011;55128;50.230;18.944;2023-12-29T06:25:58;7.93;;;5.38;;
63534;SDS011;55128;50.230;18.944;2023-12-29T06:30:58;9.90;;;5.37;;
63534;SDS011;55128;50.230;18.944;2023-12-29T06:35:59;9.60;;;5.90;;
63534;SDS011;55128;50.230;18.944;2023-12-29T06:41:02;12.13;;;6.07;;
63534;SDS011;55128;50.230;18.944;2023-12-29T06:46:04;10.25;;;6.40;;
63534;SDS011;55128;50.230;18.944;2023-12-29T06:51:04;9.97;;;6.23;;
63534;SDS011;55128;50.230;18.944;2023-12-29T06:56:04;10.13;;;6.65;;
63534;SDS011;55128;50.230;18.944;2023-12-29T07:01:05;9.77;;;6.07;;
63534;SDS011;55128;50.230;18.944;2023-12-29T07:06:09;9.53;;;6.20;;
63534;SDS011;55128;50.230;18.944;2023-12-29T07:11:10;7.68;;;5.13;;
63534;SDS011;55128;50.230;18.944;2023-12-29T07:16:11;10.20;;;6.03;;
63534;SDS011;55128;50.230;18.944;2023-12-29T07:21:12;8.70;;;5.40;;
63534;SDS011;55128;50.230;18.944;2023-12-29T07:26:13;9.27;;;5.50;;
63534;SDS011;55128;50.230;18.944;2023-12-29T07:31:13;7.73;;;5.43;;
63534;SDS011;55128;50.230;18.944;2023-12-29T07:36:13;10.00;;;5.15;;
63534;SDS011;55128;50.230;18.944;2023-12-29T07:41:14;5.88;;;4.45;;
63534;SDS011;55128;50.230;18.944;2023-12-29T07:46:23;7.55;;;5.15;;
63534;SDS011;55128;50.230;18.944;2023-12-29T07:51:24;8.35;;;5.20;;
63534;SDS011;55128;50.230;18.944;2023-12-29T07:56:24;6.82;;;5.05;;
63534;SDS011;55128;50.230;18.944;2023-12-29T08:01:25;8.13;;;4.20;;
63534;SDS011;55128;50.230;18.944;2023-12-29T08:06:27;7.50;;;4.78;;
63534;SDS011;55128;50.230;18.944;2023-12-29T08:11:27;8.25;;;4.70;;
63534;SDS011;55128;50.230;18.944;2023-12-29T08:16:27;5.65;;;4.00;;
63534;SDS011;55128;50.230;18.944;2023-12-29T08:21:27;9.38;;;4.85;;
63534;SDS011;55128;50.230;18.944;2023-12-29T08:26:29;7.20;;;4.43;;
63534;SDS011;55128;50.230;18.944;2023-12-29T08:31:29;8.02;;;4.65;;
63534;SDS011;55128;50.230;18.944;2023-12-29T08:36:29;8.70;;;5.10;;
63534;SDS011;55128;50.230;18.944;2023-12-29T08:41:30;8.02;;;4.95;;
63534;SDS011;55128;50.230;18.944;2023-12-29T08:46:30;6.50;;;4.63;;
63534;SDS011;55128;50.230;18.944;2023-12-29T08:51:30;6.13;;;4.60;;
63534;SDS011;55128;50.230;18.944;2023-12-29T08:56:30;6.68;;;4.18;;
63534;SDS011;55128;50.230;18.944;2023-12-29T09:01:31;6.07;;;4.60;;
63534;SDS011;55128;50.230;18.944;2023-12-29T09:06:31;6.55;;;4.55;;
63534;SDS011;55128;50.230;18.944;2023-12-29T09:11:32;6.20;;;4.30;;
63534;SDS011;55128;50.230;18.944;2023-12-29T09:16:35;6.03;;;4.22;;
63534;SDS011;55128;50.230;18.944;2023-12-29T09:21:36;6.07;;;4.38;;
63534;SDS011;55128;50.230;18.944;2023-12-29T09:26:36;6.30;;;4.10;;
63534;SDS011;55128;50.230;18.944;2023-12-29T09:31:36;6.13;;;3.97;;
63534;SDS011;55128;50.230;18.944;2023-12-29T09:36:37;6.70;;;3.72;;
63534;SDS011;55128;50.230;18.944;2023-12-29T09:41:38;5.65;;;4.10;;
63534;SDS011;55128;50.230;18.944;2023-12-29T09:46:46;8.25;;;4.28;;
63534;SDS011;55128;50.230;18.944;2023-12-29T09:51:49;6.90;;;3.90;;
63534;SDS011;55128;50.230;18.944;2023-12-29T09:56:50;9.02;;;4.07;;
63534;SDS011;55128;50.230;18.944;2023-12-29T10:01:51;6.80;;;3.90;;
63534;SDS011;55128;50.230;18.944;2023-12-29T10:06:52;6.20;;;3.97;;
63534;SDS011;55128;50.230;18.944;2023-12-29T10:11:55;6.38;;;4.28;;
63534;SDS011;55128;50.230;18.944;2023-12-29T10:16:59;7.97;;;4.47;;
63534;SDS011;55128;50.230;18.944;2023-12-29T10:22:18;6.28;;;3.90;;
63534;SDS011;55128;50.230;18.944;2023-12-29T10:27:21;5.60;;;3.95;;
63534;SDS011;55128;50.230;18.944;2023-12-29T10:32:23;6.45;;;4.38;;
63534;SDS011;55128;50.230;18.944;2023-12-29T10:37:23;7.40;;;4.85;;
63534;SDS011;55128;50.230;18.944;2023-12-29T10:42:23;6.90;;;4.20;;
63534;SDS011;55128;50.230;18.944;2023-12-29T10:47:24;8.07;;;4.47;;
63534;SDS011;55128;50.230;18.944;2023-12-29T10:52:24;6.63;;;3.67;;
63534;SDS011;55128;50.230;18.944;2023-12-29T10:57:24;8.13;;;4.30;;
63534;SDS011;55128;50.230;18.944;2023-12-29T11:02:25;7.10;;;4.07;;
63534;SDS011;55128;50.230;18.944;2023-12-29T11:07:39;7.25;;;4.90;;
63534;SDS011;55128;50.230;18.944;2023-12-29T11:12:40;7.45;;;5.15;;
63534;SDS011;55128;50.230;18.944;2023-12-29T11:17:43;9.02;;;5.68;;
63534;SDS011;55128;50.230;18.944;2023-12-29T11:22:49;7.03;;;4.68;;
63534;SDS011;55128;50.230;18.944;2023-12-29T11:27:50;9.05;;;4.35;;
63534;SDS011;55128;50.230;18.944;2023-12-29T11:43:42;8.13;;;5.20;;
63534;SDS011;55128;50.230;18.944;2023-12-29T11:48:52;8.50;;;5.95;;
63534;SDS011;55128;50.230;18.944;2023-12-29T11:53:57;8.70;;;5.15;;
63534;SDS011;55128;50.230;18.944;2023-12-29T12:04:38;6.22;;;3.85;;
63534;SDS011;55128;50.230;18.944;2023-12-29T12:09:45;5.05;;;3.58;;
63534;SDS011;55128;50.230;18.944;2023-12-29T12:14:52;6.47;;;3.70;;
63534;SDS011;55128;50.230;18.944;2023-12-29T12:20:27;6.75;;;3.85;;
63534;SDS011;55128;50.230;18.944;2023-12-29T12:25:20;5.93;;;3.45;;
63534;SDS011;55128;50.230;18.944;2023-12-29T12:30:21;8.45;;;4.00;;
63534;SDS011;55128;50.230;18.944;2023-12-29T12:35:22;7.43;;;4.03;;
63534;SDS011;55128;50.230;18.944;2023-12-29T12:40:25;7.30;;;4.00;;
63534;SDS011;55128;50.230;18.944;2023-12-29T12:45:27;6.47;;;3.70;;
63534;SDS011;55128;50.230;18.944;2023-12-29T12:50:28;6.55;;;3.97;;
63534;SDS011;55128;50.230;18.944;2023-12-29T12:55:31;7.45;;;4.40;;
63534;SDS011;55128;50.230;18.944;2023-12-29T13:00:34;6.72;;;4.30;;
63534;SDS011;55128;50.230;18.944;2023-12-29T13:05:35;5.95;;;4.18;;
63534;SDS011;55128;50.230;18.944;2023-12-29T13:10:40;7.20;;;4.32;;
63534;SDS011;55128;50.230;18.944;2023-12-29T13:15:46;6.47;;;4.15;;
63534;SDS011;55128;50.230;18.944;2023-12-29T13:20:49;7.22;;;4.28;;
63534;SDS011;55128;50.230;18.944;2023-12-29T13:25:51;7.32;;;3.80;;
63534;SDS011;55128;50.230;18.944;2023-12-29T13:30:54;6.23;;;3.97;;
63534;SDS011;55128;50.230;18.944;2023-12-29T13:36:01;6.15;;;3.55;;
63534;SDS011;55128;50.230;18.944;2023-12-29T13:41:18;5.55;;;3.92;;
63534;SDS011;55128;50.230;18.944;2023-12-29T13:46:20;5.78;;;4.13;;
63534;SDS011;55128;50.230;18.944;2023-12-29T13:51:24;7.10;;;3.80;;
63534;SDS011;55128;50.230;18.944;2023-12-29T13:56:25;6.53;;;3.90;;
63534;SDS011;55128;50.230;18.944;2023-12-29T14:01:28;6.33;;;4.20;;
63534;SDS011;55128;50.230;18.944;2023-12-29T14:06:38;7.95;;;4.47;;
63534;SDS011;55128;50.230;18.944;2023-12-29T14:11:43;8.50;;;4.85;;
63534;SDS011;55128;50.230;18.944;2023-12-29T14:16:45;7.50;;;4.28;;
63534;SDS011;55128;50.230;18.944;2023-12-29T14:21:46;7.00;;;4.20;;
63534;SDS011;55128;50.230;18.944;2023-12-29T14:31:53;8.23;;;4.45;;
63534;SDS011;55128;50.230;18.944;2023-12-29T14:36:55;8.35;;;4.82;;
63534;SDS011;55128;50.230;18.944;2023-12-29T14:41:56;7.17;;;4.40;;
63534;SDS011;55128;50.230;18.944;2023-12-29T14:46:56;9.35;;;4.70;;
63534;SDS011;55128;50.230;18.944;2023-12-29T14:51:56;6.68;;;4.78;;
63534;SDS011;55128;50.230;18.944;2023-12-29T14:56:57;8.95;;;5.70;;
63534;SDS011;55128;50.230;18.944;2023-12-29T15:01:57;8.48;;;4.72;;
63534;SDS011;55128;50.230;18.944;2023-12-29T15:06:57;10.70;;;5.40;;
63534;SDS011;55128;50.230;18.944;2023-12-29T15:11:58;11.20;;;4.97;;
63534;SDS011;55128;50.230;18.944;2023-12-29T15:16:58;8.43;;;5.28;;
63534;SDS011;55128;50.230;18.944;2023-12-29T15:21:59;10.10;;;4.82;;
63534;SDS011;55128;50.230;18.944;2023-12-29T15:26:59;10.68;;;5.35;;
63534;SDS011;55128;50.230;18.944;2023-12-29T15:32:00;9.00;;;4.90;;
63534;SDS011;55128;50.230;18.944;2023-12-29T15:37:00;9.73;;;5.20;;
63534;SDS011;55128;50.230;18.944;2023-12-29T15:42:03;9.52;;;5.75;;
63534;SDS011;55128;50.230;18.944;2023-12-29T15:47:03;14.52;;;6.93;;
63534;SDS011;55128;50.230;18.944;2023-12-29T15:52:04;7.97;;;5.13;;
63534;SDS011;55128;50.230;18.944;2023-12-29T15:57:04;7.70;;;4.90;;
63534;SDS011;55128;50.230;18.944;2023-12-29T16:02:07;7.20;;;4.72;;
63534;SDS011;55128;50.230;18.944;2023-12-29T16:07:10;8.27;;;4.78;;
63534;SDS011;55128;50.230;18.944;2023-12-29T16:12:10;10.52;;;4.93;;
63534;SDS011;55128;50.230;18.944;2023-12-29T16:17:10;11.40;;;5.90;;
63534;SDS011;55128;50.230;18.944;2023-12-29T16:22:11;7.90;;;4.40;;
63534;SDS011;55128;50.230;18.944;2023-12-29T16:27:11;6.37;;;4.10;;
63534;SDS011;55128;50.230;18.944;2023-12-29T16:32:13;6.90;;;4.03;;
63534;SDS011;55128;50.230;18.944;2023-12-29T16:37:19;7.28;;;4.30;;
63534;SDS011;55128;50.230;18.944;2023-12-29T16:42:20;7.97;;;4.63;;
63534;SDS011;55128;50.230;18.944;2023-12-29T16:47:20;11.38;;;5.13;;
63534;SDS011;55128;50.230;18.944;2023-12-29T16:52:20;9.05;;;5.03;;
63534;SDS011;55128;50.230;18.944;2023-12-29T16:57:21;9.95;;;4.72;;
63534;SDS011;55128;50.230;18.944;2023-12-29T17:02:21;8.68;;;5.00;;
63534;SDS011;55128;50.230;18.944;2023-12-29T17:07:21;6.88;;;4.18;;
63534;SDS011;55128;50.230;18.944;2023-12-29T17:12:22;7.60;;;4.00;;
63534;SDS011;55128;50.230;18.944;2023-12-29T17:17:22;7.53;;;4.63;;
63534;SDS011;55128;50.230;18.944;2023-12-29T17:22:22;9.07;;;4.30;;
63534;SDS011;55128;50.230;18.944;2023-12-29T17:27:23;8.35;;;4.32;;
63534;SDS011;55128;50.230;18.944;2023-12-29T17:32:23;7.43;;;4.50;;
63534;SDS011;55128;50.230;18.944;2023-12-29T17:37:23;9.37;;;5.13;;
63534;SDS011;55128;50.230;18.944;2023-12-29T17:42:27;8.52;;;4.50;;
63534;SDS011;55128;50.230;18.944;2023-12-29T17:47:27;7.70;;;4.82;;
63534;SDS011;55128;50.230;18.944;2023-12-29T17:52:28;7.75;;;4.50;;
63534;SDS011;55128;50.230;18.944;2023-12-29T17:57:28;7.60;;;4.22;;
63534;SDS011;55128;50.230;18.944;2023-12-29T18:02:29;8.47;;;5.30;;
63534;SDS011;55128;50.230;18.944;2023-12-29T18:07:31;7.88;;;4.28;;
63534;SDS011;55128;50.230;18.944;2023-12-29T18:12:32;5.72;;;3.88;;
63534;SDS011;55128;50.230;18.944;2023-12-29T18:17:32;6.85;;;4.20;;
63534;SDS011;55128;50.230;18.944;2023-12-29T18:22:34;8.57;;;4.50;;
63534;SDS011;55128;50.230;18.944;2023-12-29T18:27:34;6.80;;;4.63;;
63534;SDS011;55128;50.230;18.944;2023-12-29T18:32:45;10.57;;;5.28;;
63534;SDS011;55128;50.230;18.944;2023-12-29T18:37:45;7.40;;;4.22;;
63534;SDS011;55128;50.230;18.944;2023-12-29T18:42:46;8.05;;;4.55;;
63534;SDS011;55128;50.230;18.944;2023-12-29T18:47:47;6.60;;;4.40;;
63534;SDS011;55128;50.230;18.944;2023-12-29T18:52:48;10.63;;;5.10;;
63534;SDS011;55128;50.230;18.944;2023-12-29T18:57:50;6.68;;;4.18;;
63534;SDS011;55128;50.230;18.944;2023-12-29T19:02:50;7.03;;;4.43;;
63534;SDS011;55128;50.230;18.944;2023-12-29T19:07:51;8.18;;;4.03;;
63534;SDS011;55128;50.230;18.944;2023-12-29T19:12:52;7.05;;;4.38;;
63534;SDS011;55128;50.230;18.944;2023-12-29T19:17:52;8.52;;;4.78;;
63534;SDS011;55128;50.230;18.944;2023-12-29T19:22:53;8.18;;;4.82;;
63534;SDS011;55128;50.230;18.944;2023-12-29T19:27:54;8.90;;;5.13;;
63534;SDS011;55128;50.230;18.944;2023-12-29T19:32:56;8.68;;;5.18;;
63534;SDS011;55128;50.230;18.944;2023-12-29T19:37:57;7.77;;;4.80;;
63534;SDS011;55128;50.230;18.944;2023-12-29T19:42:57;8.77;;;4.30;;
63534;SDS011;55128;50.230;18.944;2023-12-29T19:47:57;7.20;;;4.30;;
63534;SDS011;55128;50.230;18.944;2023-12-29T19:52:58;9.50;;;5.05;;
63534;SDS011;55128;50.230;18.944;2023-12-29T19:57:58;9.77;;;4.57;;
63534;SDS011;55128;50.230;18.944;2023-12-29T20:03:00;8.57;;;4.57;;
63534;SDS011;55128;50.230;18.944;2023-12-29T20:08:07;8.18;;;4.45;;
63534;SDS011;55128;50.230;18.944;2023-12-29T20:13:08;7.57;;;4.85;;
63534;SDS011;55128;50.230;18.944;2023-12-29T20:18:09;6.70;;;4.07;;
63534;SDS011;55128;50.230;18.944;2023-12-29T20:23:13;8.05;;;3.95;;
63534;SDS011;55128;50.230;18.944;2023-12-29T20:28:13;8.03;;;4.10;;
63534;SDS011;55128;50.230;18.944;2023-12-29T20:33:13;7.32;;;3.75;;
63534;SDS011;55128;50.230;18.944;2023-12-29T20:38:14;8.73;;;4.80;;
63534;SDS011;55128;50.230;18.944;2023-12-29T20:43:14;9.23;;;4.72;;
63534;SDS011;55128;50.230;18.944;2023-12-29T20:48:14;9.25;;;5.25;;
63534;SDS011;55128;50.230;18.944;2023-12-29T20:53:15;11.43;;;5.65;;
63534;SDS011;55128;50.230;18.944;2023-12-29T20:58:15;8.23;;;4.65;;
63534;SDS011;55128;50.230;18.944;2023-12-29T21:03:15;7.50;;;4.30;;
63534;SDS011;55128;50.230;18.944;2023-12-29T21:08:16;11.05;;;5.65;;
63534;SDS011;55128;50.230;18.944;2023-12-29T21:13:17;8.13;;;4.47;;
63534;SDS011;55128;50.230;18.944;2023-12-29T21:18:17;7.03;;;4.32;;
63534;SDS011;55128;50.230;18.944;2023-12-29T21:23:19;6.82;;;4.18;;
63534;SDS011;55128;50.230;18.944;2023-12-29T21:28:21;9.68;;;4.65;;
63534;SDS011;55128;50.230;18.944;2023-12-29T21:33:21;8.38;;;3.97;;
63534;SDS011;55128;50.230;18.944;2023-12-29T21:38:22;7.78;;;4.32;;
63534;SDS011;55128;50.230;18.944;2023-12-29T21:43:22;7.30;;;4.63;;
63534;SDS011;55128;50.230;18.944;2023-12-29T21:48:23;7.28;;;3.80;;
63534;SDS011;55128;50.230;18.944;2023-12-29T21:53:23;9.10;;;4.68;;
63534;SDS011;55128;50.230;18.944;2023-12-29T21:58:24;10.77;;;4.72;;
63534;SDS011;55128;50.230;18.944;2023-12-29T22:03:24;9.43;;;4.80;;
63534;SDS011;55128;50.230;18.944;2023-12-29T22:08:25;12.07;;;6.03;;
63534;SDS011;55128;50.230;18.944;2023-12-29T22:13:25;10.23;;;5.13;;
63534;SDS011;55128;50.230;18.944;2023-12-29T22:18:25;10.37;;;5.20;;
63534;SDS011;55128;50.230;18.944;2023-12-29T22:23:25;9.90;;;4.82;;
63534;SDS011;55128;50.230;18.944;2023-12-29T22:28:26;9.18;;;4.78;;
63534;SDS011;55128;50.230;18.944;2023-12-29T22:33:27;9.10;;;4.80;;
63534;SDS011;55128;50.230;18.944;2023-12-29T22:38:27;10.48;;;4.63;;
63534;SDS011;55128;50.230;18.944;2023-12-29T22:43:28;9.43;;;5.10;;
63534;SDS011;55128;50.230;18.944;2023-12-29T22:48:28;8.63;;;4.57;;
63534;SDS011;55128;50.230;18.944;2023-12-29T22:53:29;6.93;;;4.30;;
63534;SDS011;55128;50.230;18.944;2023-12-29T22:58:29;8.00;;;4.45;;
63534;SDS011;55128;50.230;18.944;2023-12-29T23:03:29;5.63;;;3.65;;
63534;SDS011;55128;50.230;18.944;2023-12-29T23:08:30;7.13;;;4.10;;
63534;SDS011;55128;50.230;18.944;2023-12-29T23:13:30;11.68;;;5.10;;
63534;SDS011;55128;50.230;18.944;2023-12-29T23:18:30;13.77;;;6.53;;
63534;SDS011;55128;50.230;18.944;2023-12-29T23:23:30;10.02;;;5.63;;
63534;SDS011;55128;50.230;18.944;2023-12-29T23:28:31;11.05;;;5.38;;
63534;SDS011;55128;50.230;18.944;2023-12-29T23:33:31;9.65;;;4.68;;
63534;SDS011;55128;50.230;18.944;2023-12-29T23:38:31;9.15;;;4.55;;
63534;SDS011;55128;50.230;18.944;2023-12-29T23:43:32;7.75;;;4.28;;
63534;SDS011;55128;50.230;18.944;2023-12-29T23:48:32;5.55;;;3.47;;
63534;SDS011;55128;50.230;18.944;2023-12-29T23:53:33;6.28;;;3.70;;
63534;SDS011;55128;50.230;18.944;2023-12-29T23:58:34;7.85;;;4.10;;
